sensor_id;sensor_type;location;lat;lon;timestamp;pressure;altitude;pressure_sealevel;temperature;humidity
71149;BME280;59072;42.144;25.200;2024-03-06T00:01:39;99877.38;;;9.25;100.00
71149;BME280;59072;42.144;25.200;2024-03-06T00:04:04;99858.72;;;9.00;100.00
71149;BME280;59072;42.144;25.200;2024-03-06T00:06:29;99873.38;;;9.09;100.00
71149;BME280;59072;42.144;25.200;2024-03-06T00:08:56;99851.34;;;9.02;100.00
71149;BME280;59072;42.144;25.200;2024-03-06T00:11:21;99862.53;;;9.11;100.00
71149;BME280;59072;42.144;25.200;2024-03-06T00:13:47;99871.25;;;9.24;100.00
71149;BME280;59072;42.144;25.200;2024-03-06T00:16:13;99865.50;;;9.28;100.00
71149;BME280;59072;42.144;25.200;2024-03-06T00:18:38;99852.22;;;9.21;100.00
71149;BME280;59072;42.144;25.200;2024-03-06T00:21:05;99825.13;;;9.05;100.00
71149;BME280;59072;42.144;25.200;2024-03-06T00:23:30;99871.59;;;9.35;100.00
71149;BME280;59072;42.144;25.200;2024-03-06T00:25:56;99851.22;;;9.15;100.00
71149;BME280;59072;42.144;25.200;2024-03-06T00:28:22;99856.81;;;9.07;100.00
71149;BME280;59072;42.144;25.200;2024-03-06T00:30:47;99861.25;;;9.20;100.00
71149;BME280;59072;42.144;25.200;2024-03-06T00:33:13;99851.13;;;9.03;100.00
71149;BME280;59072;42.144;25.200;2024-03-06T00:35:38;99864.50;;;9.22;100.00
71149;BME280;59072;42.144;25.200;2024-03-06T00:38:03;99860.50;;;9.06;100.00
71149;BME280;59072;42.144;25.200;2024-03-06T00:40:29;99847.28;;;8.93;100.00
71149;BME280;59072;42.144;25.200;2024-03-06T00:42:58;99873.75;;;9.19;100.00
71149;BME280;59072;42.144;25.200;2024-03-06T00:45:23;99877.38;;;8.93;100.00
71149;BME280;59072;42.144;25.200;2024-03-06T00:47:49;99862.56;;;9.04;100.00
71149;BME280;59072;42.144;25.200;2024-03-06T00:50:15;99879.13;;;9.06;100.00
71149;BME280;59072;42.144;25.200;2024-03-06T00:52:42;99867.03;;;9.10;100.00
71149;BME280;59072;42.144;25.200;2024-03-06T00:55:09;99880.19;;;8.98;100.00
71149;BME280;59072;42.144;25.200;2024-03-06T00:57:35;99861.31;;;8.75;100.00
71149;BME280;59072;42.144;25.200;2024-03-06T01:00:01;99861.25;;;8.81;100.00
71149;BME280;59072;42.144;25.200;2024-03-06T01:02:27;99875.50;;;8.94;100.00
71149;BME280;59072;42.144;25.200;2024-03-06T01:04:52;99891.03;;;8.97;100.00
71149;BME280;59072;42.144;25.200;2024-03-06T01:07:17;99885.31;;;9.00;100.00
71149;BME280;59072;42.144;25.200;2024-03-06T01:09:43;99875.81;;;8.72;100.00
71149;BME280;59072;42.144;25.200;2024-03-06T01:12:09;99881.31;;;8.77;100.00
71149;BME280;59072;42.144;25.200;2024-03-06T01:14:36;99880.19;;;8.53;100.00
71149;BME280;59072;42.144;25.200;2024-03-06T01:17:01;99883.00;;;8.65;100.00
71149;BME280;59072;42.144;25.200;2024-03-06T01:19:27;99876.06;;;8.64;100.00
71149;BME280;59072;42.144;25.200;2024-03-06T01:21:53;99878.53;;;8.59;100.00
71149;BME280;59072;42.144;25.200;2024-03-06T01:24:18;99889.19;;;8.45;100.00
71149;BME280;59072;42.144;25.200;2024-03-06T01:26:43;99881.84;;;8.34;100.00
71149;BME280;59072;42.144;25.200;2024-03-06T01:29:09;99898.22;;;8.38;100.00
71149;BME280;59072;42.144;25.200;2024-03-06T01:31:34;99892.06;;;8.51;100.00
71149;BME280;59072;42.144;25.200;2024-03-06T01:33:59;99892.03;;;8.57;100.00
71149;BME280;59072;42.144;25.200;2024-03-06T01:36:25;99895.03;;;8.74;100.00
71149;BME280;59072;42.144;25.200;2024-03-06T01:38:50;99889.09;;;8.72;100.00
71149;BME280;59072;42.144;25.200;2024-03-06T01:41:16;99878.44;;;8.85;100.00
71149;BME280;59072;42.144;25.200;2024-03-06T01:43:41;99898.28;;;8.76;100.00
71149;BME280;59072;42.144;25.200;2024-03-06T01:46:07;99891.75;;;8.72;100.00
71149;BME280;59072;42.144;25.200;2024-03-06T01:48:33;99903.00;;;8.81;100.00
71149;BME280;59072;42.144;25.200;2024-03-06T01:51:01;99901.72;;;8.90;100.00
71149;BME280;59072;42.144;25.200;2024-03-06T01:53:29;99881.38;;;8.64;100.00
71149;BME280;59072;42.144;25.200;2024-03-06T01:55:55;99911.59;;;8.76;100.00
71149;BME280;59072;42.144;25.200;2024-03-06T01:58:21;99876.00;;;8.77;100.00
71149;BME280;59072;42.144;25.200;2024-03-06T02:00:49;99912.66;;;9.14;100.00
71149;BME280;59072;42.144;25.200;2024-03-06T02:03:15;99907.00;;;8.97;100.00
71149;BME280;59072;42.144;25.200;2024-03-06T02:05:41;99899.69;;;8.85;100.00
71149;BME280;59072;42.144;25.200;2024-03-06T02:08:07;99903.72;;;8.95;100.00
71149;BME280;59072;42.144;25.200;2024-03-06T02:10:33;99910.00;;;9.07;100.00
71149;BME280;59072;42.144;25.200;2024-03-06T02:12:59;99883.16;;;9.15;100.00
71149;BME280;59072;42.144;25.200;2024-03-06T02:15:25;99912.66;;;9.14;100.00
71149;BME280;59072;42.144;25.200;2024-03-06T02:17:51;99890.22;;;8.96;100.00
71149;BME280;59072;42.144;25.200;2024-03-06T02:20:24;99906.75;;;9.05;100.00
71149;BME280;59072;42.144;25.200;2024-03-06T02:22:49;99882.69;;;8.87;100.00
71149;BME280;59072;42.144;25.200;2024-03-06T02:25:16;99918.44;;;9.04;100.00
71149;BME280;59072;42.144;25.200;2024-03-06T02:27:42;99883.31;;;8.89;100.00
71149;BME280;59072;42.144;25.200;2024-03-06T02:30:09;99911.22;;;9.11;100.00
71149;BME280;59072;42.144;25.200;2024-03-06T02:32:34;99906.34;;;9.08;100.00
71149;BME280;59072;42.144;25.200;2024-03-06T02:35:03;99903.97;;;8.93;100.00
71149;BME280;59072;42.144;25.200;2024-03-06T02:37:33;99891.03;;;8.97;100.00
71149;BME280;59072;42.144;25.200;2024-03-06T02:39:59;99910.66;;;9.02;100.00
71149;BME280;59072;42.144;25.200;2024-03-06T02:42:24;99902.28;;;8.99;100.00
71149;BME280;59072;42.144;25.200;2024-03-06T02:44:50;99913.53;;;9.01;100.00
71149;BME280;59072;42.144;25.200;2024-03-06T02:47:15;99899.06;;;8.90;100.00
71149;BME280;59072;42.144;25.200;2024-03-06T02:49:41;99913.75;;;8.93;100.00
71149;BME280;59072;42.144;25.200;2024-03-06T02:52:06;99904.56;;;8.89;100.00
71149;BME280;59072;42.144;25.200;2024-03-06T02:54:31;99907.78;;;9.04;100.00
71149;BME280;59072;42.144;25.200;2024-03-06T02:56:57;99919.44;;;9.03;100.00
71149;BME280;59072;42.144;25.200;2024-03-06T02:59:22;99920.97;;;8.85;100.00
71149;BME280;59072;42.144;25.200;2024-03-06T03:01:49;99931.16;;;8.95;100.00
71149;BME280;59072;42.144;25.200;2024-03-06T03:04:14;99918.44;;;9.04;100.00
71149;BME280;59072;42.144;25.200;2024-03-06T03:06:39;99923.97;;;9.02;100.00
71149;BME280;59072;42.144;25.200;2024-03-06T03:09:05;99920.53;;;8.89;100.00
71149;BME280;59072;42.144;25.200;2024-03-06T03:11:30;99927.06;;;8.93;100.00
71149;BME280;59072;42.144;25.200;2024-03-06T03:13:57;99935.59;;;9.08;100.00
71149;BME280;59072;42.144;25.200;2024-03-06T03:16:22;99946.25;;;9.08;100.00
71149;BME280;59072;42.144;25.200;2024-03-06T03:18:48;99939.88;;;9.09;100.00
71149;BME280;59072;42.144;25.200;2024-03-06T03:21:14;99937.63;;;9.13;100.00
71149;BME280;59072;42.144;25.200;2024-03-06T03:23:40;99931.72;;;9.04;100.00
71149;BME280;59072;42.144;25.200;2024-03-06T03:26:06;99927.06;;;8.99;100.00
71149;BME280;59072;42.144;25.200;2024-03-06T03:28:32;99948.72;;;9.03;100.00
71149;BME280;59072;42.144;25.200;2024-03-06T03:30:58;99926.28;;;8.85;100.00
71149;BME280;59072;42.144;25.200;2024-03-06T03:33:23;99918.91;;;8.88;100.00
71149;BME280;59072;42.144;25.200;2024-03-06T03:35:49;99936.09;;;8.92;100.00
71149;BME280;59072;42.144;25.200;2024-03-06T03:38:14;99940.22;;;8.81;100.00
71149;BME280;59072;42.144;25.200;2024-03-06T03:40:40;99933.59;;;8.97;100.00
71149;BME280;59072;42.144;25.200;2024-03-06T03:43:05;99933.38;;;8.98;100.00
71149;BME280;59072;42.144;25.200;2024-03-06T03:45:34;99940.13;;;9.01;100.00
71149;BME280;59072;42.144;25.200;2024-03-06T03:48:02;99922.59;;;8.87;100.00
71149;BME280;59072;42.144;25.200;2024-03-06T03:50:28;99919.53;;;8.90;100.00
71149;BME280;59072;42.144;25.200;2024-03-06T03:52:55;99938.38;;;8.81;100.00
71149;BME280;59072;42.144;25.200;2024-03-06T03:55:23;99941.44;;;8.78;100.00
71149;BME280;59072;42.144;25.200;2024-03-06T03:57:48;99936.59;;;8.69;100.00
71149;BME280;59072;42.144;25.200;2024-03-06T04:00:14;99941.50;;;8.65;100.00
71149;BME280;59072;42.144;25.200;2024-03-06T04:02:39;99944.16;;;8.65;100.00
71149;BME280;59072;42.144;25.200;2024-03-06T04:05:05;99936.19;;;8.52;100.00
71149;BME280;59072;42.144;25.200;2024-03-06T04:07:30;99932.47;;;8.66;100.00
71149;BME280;59072;42.144;25.200;2024-03-06T04:09:56;99935.13;;;8.66;100.00
71149;BME280;59072;42.144;25.200;2024-03-06T04:12:23;99938.16;;;8.76;100.00
71149;BME280;59072;42.144;25.200;2024-03-06T04:14:48;99952.34;;;8.63;100.00
71149;BME280;59072;42.144;25.200;2024-03-06T04:17:14;99961.78;;;8.53;100.00
71149;BME280;59072;42.144;25.200;2024-03-06T04:19:40;99950.47;;;8.64;100.00
71149;BME280;59072;42.144;25.200;2024-03-06T04:22:05;99948.06;;;8.62;100.00
71149;BME280;59072;42.144;25.200;2024-03-06T04:24:31;99959.06;;;8.66;100.00
71149;BME280;59072;42.144;25.200;2024-03-06T04:26:56;99957.44;;;8.65;100.00
71149;BME280;59072;42.144;25.200;2024-03-06T04:29:21;99964.19;;;8.68;100.00
71149;BME280;59072;42.144;25.200;2024-03-06T04:31:47;99958.69;;;8.62;100.00
71149;BME280;59072;42.144;25.200;2024-03-06T04:34:12;99971.38;;;8.40;100.00
71149;BME280;59072;42.144;25.200;2024-03-06T04:36:37;99964.81;;;8.50;100.00
71149;BME280;59072;42.144;25.200;2024-03-06T04:39:03;99973.81;;;8.35;100.00
71149;BME280;59072;42.144;25.200;2024-03-06T04:41:35;99972.81;;;8.30;100.00
71149;BME280;59072;42.144;25.200;2024-03-06T04:44:01;99975.47;;;8.50;100.00
71149;BME280;59072;42.144;25.200;2024-03-06T04:46:26;99967.31;;;8.44;100.00
71149;BME280;59072;42.144;25.200;2024-03-06T04:48:52;99973.41;;;8.38;100.00
71149;BME280;59072;42.144;25.200;2024-03-06T04:51:17;99968.53;;;8.09;100.00
71149;BME280;59072;42.144;25.200;2024-03-06T04:53:45;99981.81;;;8.15;100.00
71149;BME280;59072;42.144;25.200;2024-03-06T04:56:11;100000.22;;;8.43;100.00
71149;BME280;59072;42.144;25.200;2024-03-06T04:58:36;99982.00;;;8.40;100.00
71149;BME280;59072;42.144;25.200;2024-03-06T05:01:02;99979.75;;;8.31;100.00
71149;BME280;59072;42.144;25.200;2024-03-06T05:03:28;99993.03;;;8.37;100.00
71149;BME280;59072;42.144;25.200;2024-03-06T05:05:54;99953.63;;;8.14;100.00
71149;BME280;59072;42.144;25.200;2024-03-06T05:08:19;99993.66;;;8.26;100.00
71149;BME280;59072;42.144;25.200;2024-03-06T05:10:46;99986.50;;;8.27;100.00
71149;BME280;59072;42.144;25.200;2024-03-06T05:13:11;100008.56;;;8.54;100.00
71149;BME280;59072;42.144;25.200;2024-03-06T05:15:37;100015.56;;;8.48;100.00
71149;BME280;59072;42.144;25.200;2024-03-06T05:18:04;99991.41;;;8.16;100.00
71149;BME280;59072;42.144;25.200;2024-03-06T05:20:30;100016.75;;;8.45;100.00
71149;BME280;59072;42.144;25.200;2024-03-06T05:22:58;100014.91;;;8.39;100.00
71149;BME280;59072;42.144;25.200;2024-03-06T05:25:24;100001.22;;;8.36;100.00
71149;BME280;59072;42.144;25.200;2024-03-06T05:27:50;100013.09;;;8.20;100.00
71149;BME280;59072;42.144;25.200;2024-03-06T05:30:15;100005.72;;;8.22;100.00
71149;BME280;59072;42.144;25.200;2024-03-06T05:32:41;100028.19;;;8.26;100.00
71149;BME280;59072;42.144;25.200;2024-03-06T05:35:07;100035.16;;;8.40;100.00
71149;BME280;59072;42.144;25.200;2024-03-06T05:37:37;100006.13;;;8.32;100.00
71149;BME280;59072;42.144;25.200;2024-03-06T05:40:03;100012.69;;;8.30;100.00
71149;BME280;59072;42.144;25.200;2024-03-06T05:42:31;100039.06;;;8.51;100.00
71149;BME280;59072;42.144;25.200;2024-03-06T05:44:59;100027.59;;;8.51;100.00
71149;BME280;59072;42.144;25.200;2024-03-06T05:47:35;100019.84;;;8.42;100.00
71149;BME280;59072;42.144;25.200;2024-03-06T05:50:00;100035.59;;;8.44;100.00
71149;BME280;59072;42.144;25.200;2024-03-06T05:52:32;100003.28;;;8.14;100.00
71149;BME280;59072;42.144;25.200;2024-03-06T05:54:59;100030.66;;;8.34;100.00
71149;BME280;59072;42.144;25.200;2024-03-06T05:57:24;100033.94;;;8.30;100.00
71149;BME280;59072;42.144;25.200;2024-03-06T05:59:50;100047.63;;;8.53;100.00
71149;BME280;59072;42.144;25.200;2024-03-06T06:02:16;100022.06;;;8.19;100.00
71149;BME280;59072;42.144;25.200;2024-03-06T06:04:42;100026.16;;;8.41;100.00
71149;BME280;59072;42.144;25.200;2024-03-06T06:07:07;100032.88;;;8.37;100.00
71149;BME280;59072;42.144;25.200;2024-03-06T06:09:33;100025.16;;;8.42;100.00
71149;BME280;59072;42.144;25.200;2024-03-06T06:11:58;100053.56;;;8.49;100.00
71149;BME280;59072;42.144;25.200;2024-03-06T06:14:24;100052.16;;;8.46;100.00
71149;BME280;59072;42.144;25.200;2024-03-06T06:16:52;100029.00;;;8.33;100.00
71149;BME280;59072;42.144;25.200;2024-03-06T06:19:17;100046.00;;;8.52;100.00
71149;BME280;59072;42.144;25.200;2024-03-06T06:21:43;100053.16;;;8.58;100.00
71149;BME280;59072;42.144;25.200;2024-03-06T06:24:09;100064.81;;;8.51;100.00
71149;BME280;59072;42.144;25.200;2024-03-06T06:26:35;100054.59;;;8.48;100.00
71149;BME280;59072;42.144;25.200;2024-03-06T06:29:00;100049.88;;;8.63;100.00
71149;BME280;59072;42.144;25.200;2024-03-06T06:31:26;100066.19;;;8.87;100.00
71149;BME280;59072;42.144;25.200;2024-03-06T06:33:53;100068.44;;;8.90;100.00
71149;BME280;59072;42.144;25.200;2024-03-06T06:36:18;100046.16;;;8.84;100.00
71149;BME280;59072;42.144;25.200;2024-03-06T06:38:45;100075.34;;;9.11;100.00
71149;BME280;59072;42.144;25.200;2024-03-06T06:41:10;100060.03;;;8.93;100.00
71149;BME280;59072;42.144;25.200;2024-03-06T06:43:36;100082.53;;;8.97;100.00
71149;BME280;59072;42.144;25.200;2024-03-06T06:46:01;100064.34;;;8.94;100.00
71149;BME280;59072;42.144;25.200;2024-03-06T06:48:29;100083.34;;;9.11;100.00
71149;BME280;59072;42.144;25.200;2024-03-06T06:50:55;100087.63;;;9.18;100.00
71149;BME280;59072;42.144;25.200;2024-03-06T06:53:20;100096.34;;;9.39;100.00
71149;BME280;59072;42.144;25.200;2024-03-06T06:55:46;100080.66;;;9.69;100.00
71149;BME280;59072;42.144;25.200;2024-03-06T06:58:11;100086.09;;;9.88;100.00
71149;BME280;59072;42.144;25.200;2024-03-06T07:00:36;100088.72;;;9.94;100.00
71149;BME280;59072;42.144;25.200;2024-03-06T07:03:03;100075.16;;;10.02;100.00
71149;BME280;59072;42.144;25.200;2024-03-06T07:05:28;100078.06;;;9.94;100.00
71149;BME280;59072;42.144;25.200;2024-03-06T07:07:54;100069.91;;;9.89;100.00
71149;BME280;59072;42.144;25.200;2024-03-06T07:10:19;100080.72;;;9.62;100.00
71149;BME280;59072;42.144;25.200;2024-03-06T07:12:45;100063.53;;;9.58;100.00
71149;BME280;59072;42.144;25.200;2024-03-06T07:15:10;100075.69;;;9.79;100.00
71149;BME280;59072;42.144;25.200;2024-03-06T07:17:35;100084.00;;;9.96;100.00
71149;BME280;59072;42.144;25.200;2024-03-06T07:20:01;100082.63;;;9.87;100.00
71149;BME280;59072;42.144;25.200;2024-03-06T07:22:26;100072.75;;;9.94;100.00
71149;BME280;59072;42.144;25.200;2024-03-06T07:24:52;100081.16;;;9.91;100.00
71149;BME280;59072;42.144;25.200;2024-03-06T07:27:17;100065.28;;;9.71;100.00
71149;BME280;59072;42.144;25.200;2024-03-06T07:29:43;100063.41;;;9.78;100.00
71149;BME280;59072;42.144;25.200;2024-03-06T07:32:09;100093.00;;;10.27;100.00
71149;BME280;59072;42.144;25.200;2024-03-06T07:34:34;100074.06;;;10.42;100.00
71149;BME280;59072;42.144;25.200;2024-03-06T07:37:00;100077.72;;;10.48;100.00
71149;BME280;59072;42.144;25.200;2024-03-06T07:39:25;100086.31;;;10.50;100.00
71149;BME280;59072;42.144;25.200;2024-03-06T07:41:51;100080.00;;;10.44;100.00
71149;BME280;59072;42.144;25.200;2024-03-06T07:44:17;100061.72;;;10.48;100.00
71149;BME280;59072;42.144;25.200;2024-03-06T07:46:42;100082.78;;;10.56;100.00
71149;BME280;59072;42.144;25.200;2024-03-06T07:49:07;100089.19;;;10.48;100.00
71149;BME280;59072;42.144;25.200;2024-03-06T07:51:34;100089.41;;;10.72;100.00
71149;BME280;59072;42.144;25.200;2024-03-06T07:53:59;100077.69;;;10.98;100.00
71149;BME280;59072;42.144;25.200;2024-03-06T07:56:26;100080.28;;;11.04;100.00
71149;BME280;59072;42.144;25.200;2024-03-06T07:58:52;100059.41;;;10.76;100.00
71149;BME280;59072;42.144;25.200;2024-03-06T08:01:19;100088.06;;;11.06;100.00
71149;BME280;59072;42.144;25.200;2024-03-06T08:03:45;100064.16;;;10.93;100.00
71149;BME280;59072;42.144;25.200;2024-03-06T08:06:11;100085.69;;;10.98;100.00
71149;BME280;59072;42.144;25.200;2024-03-06T08:08:40;100076.31;;;10.89;100.00
71149;BME280;59072;42.144;25.200;2024-03-06T08:11:05;100083.59;;;11.00;100.00
71149;BME280;59072;42.144;25.200;2024-03-06T08:13:31;100057.91;;;11.05;100.00
71149;BME280;59072;42.144;25.200;2024-03-06T08:15:56;100091.34;;;11.26;100.00
71149;BME280;59072;42.144;25.200;2024-03-06T08:18:21;100084.34;;;11.44;100.00
71149;BME280;59072;42.144;25.200;2024-03-06T08:20:47;100089.97;;;11.54;100.00
71149;BME280;59072;42.144;25.200;2024-03-06T08:23:12;100092.28;;;11.81;100.00
71149;BME280;59072;42.144;25.200;2024-03-06T08:25:38;100099.59;;;11.92;100.00
71149;BME280;59072;42.144;25.200;2024-03-06T08:28:03;100085.97;;;11.63;100.00
71149;BME280;59072;42.144;25.200;2024-03-06T08:30:30;100086.06;;;11.57;100.00
71149;BME280;59072;42.144;25.200;2024-03-06T08:32:56;100074.66;;;11.80;100.00
71149;BME280;59072;42.144;25.200;2024-03-06T08:35:22;100076.63;;;11.84;100.00
71149;BME280;59072;42.144;25.200;2024-03-06T08:37:49;100074.28;;;12.06;100.00
71149;BME280;59072;42.144;25.200;2024-03-06T08:40:16;100092.28;;;12.41;100.00
71149;BME280;59072;42.144;25.200;2024-03-06T08:42:46;100098.94;;;12.51;100.00
71149;BME280;59072;42.144;25.200;2024-03-06T08:45:15;100078.22;;;12.70;100.00
71149;BME280;59072;42.144;25.200;2024-03-06T08:47:41;100094.97;;;13.00;100.00
71149;BME280;59072;42.144;25.200;2024-03-06T08:50:09;100099.75;;;12.86;100.00
71149;BME280;59072;42.144;25.200;2024-03-06T08:52:35;100111.50;;;13.21;100.00
71149;BME280;59072;42.144;25.200;2024-03-06T08:55:01;100108.94;;;13.02;100.00
71149;BME280;59072;42.144;25.200;2024-03-06T08:57:29;100105.91;;;12.99;100.00
71149;BME280;59072;42.144;25.200;2024-03-06T08:59:59;100091.97;;;12.73;100.00
71149;BME280;59072;42.144;25.200;2024-03-06T09:02:24;100100.44;;;12.82;100.00
71149;BME280;59072;42.144;25.200;2024-03-06T09:04:51;100110.00;;;12.90;100.00
71149;BME280;59072;42.144;25.200;2024-03-06T09:07:20;100099.53;;;13.00;100.00
71149;BME280;59072;42.144;25.200;2024-03-06T09:09:49;100087.28;;;13.16;100.00
71149;BME280;59072;42.144;25.200;2024-03-06T09:12:15;100077.97;;;13.18;100.00
71149;BME280;59072;42.144;25.200;2024-03-06T09:14:41;100110.19;;;13.88;100.00
71149;BME280;59072;42.144;25.200;2024-03-06T09:17:06;100110.03;;;13.94;100.00
71149;BME280;59072;42.144;25.200;2024-03-06T09:19:34;100107.63;;;14.10;100.00
71149;BME280;59072;42.144;25.200;2024-03-06T09:22:00;100098.06;;;14.31;100.00
71149;BME280;59072;42.144;25.200;2024-03-06T09:24:25;100095.91;;;14.16;100.00
71149;BME280;59072;42.144;25.200;2024-03-06T09:26:54;100101.09;;;14.05;100.00
71149;BME280;59072;42.144;25.200;2024-03-06T09:29:20;100087.97;;;14.21;100.00
71149;BME280;59072;42.144;25.200;2024-03-06T09:31:46;100092.38;;;14.27;100.00
71149;BME280;59072;42.144;25.200;2024-03-06T09:34:13;100084.91;;;14.29;100.00
71149;BME280;59072;42.144;25.200;2024-03-06T09:36:45;100098.13;;;14.19;100.00
71149;BME280;59072;42.144;25.200;2024-03-06T09:39:12;100091.69;;;14.20;100.00
71149;BME280;59072;42.144;25.200;2024-03-06T09:41:38;100096.81;;;14.67;100.00
71149;BME280;59072;42.144;25.200;2024-03-06T09:44:07;100092.66;;;15.15;100.00
71149;BME280;59072;42.144;25.200;2024-03-06T09:46:33;100096.34;;;15.31;100.00
71149;BME280;59072;42.144;25.200;2024-03-06T09:49:01;100087.34;;;15.42;100.00
71149;BME280;59072;42.144;25.200;2024-03-06T09:51:26;100108.34;;;15.45;100.00
71149;BME280;59072;42.144;25.200;2024-03-06T09:53:53;100109.47;;;15.72;87.70
71149;BME280;59072;42.144;25.200;2024-03-06T09:56:19;100103.56;;;15.92;88.84
71149;BME280;59072;42.144;25.200;2024-03-06T09:58:45;100099.72;;;16.15;85.57
71149;BME280;59072;42.144;25.200;2024-03-06T10:01:12;100112.28;;;16.36;77.42
71149;BME280;59072;42.144;25.200;2024-03-06T10:03:38;100096.69;;;16.06;78.31
71149;BME280;59072;42.144;25.200;2024-03-06T10:06:06;100092.94;;;15.80;81.99
71149;BME280;59072;42.144;25.200;2024-03-06T10:08:33;100077.22;;;15.27;86.61
71149;BME280;59072;42.144;25.200;2024-03-06T10:10:59;100098.53;;;16.00;78.26
71149;BME280;59072;42.144;25.200;2024-03-06T10:13:25;100100.38;;;16.59;74.24
71149;BME280;59072;42.144;25.200;2024-03-06T10:16:02;100077.22;;;15.94;82.96
71149;BME280;59072;42.144;25.200;2024-03-06T10:18:29;100070.41;;;15.86;88.33
71149;BME280;59072;42.144;25.200;2024-03-06T10:20:56;100090.78;;;16.09;84.41
71149;BME280;59072;42.144;25.200;2024-03-06T10:23:21;100082.22;;;16.44;80.50
71149;BME280;59072;42.144;25.200;2024-03-06T10:25:47;100068.28;;;16.53;84.76
71149;BME280;59072;42.144;25.200;2024-03-06T10:28:21;100074.69;;;16.46;80.33
71149;BME280;59072;42.144;25.200;2024-03-06T10:30:48;100079.72;;;16.70;76.36
71149;BME280;59072;42.144;25.200;2024-03-06T10:33:14;100070.41;;;17.36;79.58
71149;BME280;59072;42.144;25.200;2024-03-06T10:35:41;100076.25;;;16.75;82.25
71149;BME280;59072;42.144;25.200;2024-03-06T10:38:08;100083.00;;;17.20;70.22
71149;BME280;59072;42.144;25.200;2024-03-06T10:40:39;100061.91;;;17.06;73.75
71149;BME280;59072;42.144;25.200;2024-03-06T10:43:05;100049.09;;;16.81;70.91
71149;BME280;59072;42.144;25.200;2024-03-06T10:45:47;100073.13;;;17.41;69.73
71149;BME280;59072;42.144;25.200;2024-03-06T10:48:19;100069.06;;;17.38;73.72
71149;BME280;59072;42.144;25.200;2024-03-06T10:50:46;100076.88;;;17.40;69.56
71149;BME280;59072;42.144;25.200;2024-03-06T10:53:16;100044.78;;;17.33;69.57
71149;BME280;59072;42.144;25.200;2024-03-06T10:55:45;100066.75;;;17.67;69.11
71149;BME280;59072;42.144;25.200;2024-03-06T10:58:11;100063.59;;;18.06;65.63
71149;BME280;59072;42.144;25.200;2024-03-06T11:00:41;100060.81;;;17.81;65.60
71149;BME280;59072;42.144;25.200;2024-03-06T11:03:08;100058.72;;;17.93;65.28
71149;BME280;59072;42.144;25.200;2024-03-06T11:05:37;100036.59;;;18.01;71.03
71149;BME280;59072;42.144;25.200;2024-03-06T11:08:08;100045.75;;;17.85;69.76
71149;BME280;59072;42.144;25.200;2024-03-06T11:10:35;100050.00;;;16.92;71.47
71149;BME280;59072;42.144;25.200;2024-03-06T11:13:01;100043.94;;;16.37;83.89
71149;BME280;59072;42.144;25.200;2024-03-06T11:15:28;100010.97;;;16.20;82.51
71149;BME280;59072;42.144;25.200;2024-03-06T11:17:54;100021.25;;;16.23;79.41
71149;BME280;59072;42.144;25.200;2024-03-06T11:20:20;100031.31;;;16.80;79.23
71149;BME280;59072;42.144;25.200;2024-03-06T11:28:20;100012.44;;;17.33;73.06
71149;BME280;59072;42.144;25.200;2024-03-06T11:33:21;100023.63;;;17.93;69.88
71149;BME280;59072;42.144;25.200;2024-03-06T11:41:25;100016.00;;;17.49;72.58
71149;BME280;59072;42.144;25.200;2024-03-06T11:43:52;100020.84;;;17.52;64.51
71149;BME280;59072;42.144;25.200;2024-03-06T11:49:22;100012.88;;;17.98;67.00
71149;BME280;59072;42.144;25.200;2024-03-06T11:51:53;100007.69;;;18.63;61.99
71149;BME280;59072;42.144;25.200;2024-03-06T11:54:19;99998.91;;;19.57;54.63
71149;BME280;59072;42.144;25.200;2024-03-06T11:56:49;99996.84;;;18.74;63.11
71149;BME280;59072;42.144;25.200;2024-03-06T11:59:34;100014.84;;;19.09;60.10
71149;BME280;59072;42.144;25.200;2024-03-06T12:02:02;100013.38;;;18.41;58.71
71149;BME280;59072;42.144;25.200;2024-03-06T12:04:36;100009.06;;;17.89;63.24
71149;BME280;59072;42.144;25.200;2024-03-06T12:07:04;99993.38;;;17.65;67.07
71149;BME280;59072;42.144;25.200;2024-03-06T12:09:35;99973.19;;;17.94;65.70
71149;BME280;59072;42.144;25.200;2024-03-06T12:12:00;99985.00;;;18.54;63.10
71149;BME280;59072;42.144;25.200;2024-03-06T12:14:27;99987.69;;;18.54;59.99
71149;BME280;59072;42.144;25.200;2024-03-06T12:16:56;99994.47;;;17.70;62.71
71149;BME280;59072;42.144;25.200;2024-03-06T12:19:22;99982.09;;;17.84;62.79
71149;BME280;59072;42.144;25.200;2024-03-06T12:21:48;99998.16;;;17.38;64.28
71149;BME280;59072;42.144;25.200;2024-03-06T12:24:16;99984.91;;;17.21;72.57
71149;BME280;59072;42.144;25.200;2024-03-06T12:26:44;99957.31;;;16.93;67.22
71149;BME280;59072;42.144;25.200;2024-03-06T12:29:11;99989.22;;;16.69;67.96
71149;BME280;59072;42.144;25.200;2024-03-06T12:31:41;99975.16;;;16.14;74.63
71149;BME280;59072;42.144;25.200;2024-03-06T12:34:07;99985.84;;;16.41;71.81
71149;BME280;59072;42.144;25.200;2024-03-06T12:36:32;99986.19;;;16.13;69.06
71149;BME280;59072;42.144;25.200;2024-03-06T12:38:59;99985.84;;;16.41;67.71
71149;BME280;59072;42.144;25.200;2024-03-06T12:41:25;99980.03;;;16.65;67.78
71149;BME280;59072;42.144;25.200;2024-03-06T12:43:52;99990.44;;;16.41;70.90
71149;BME280;59072;42.144;25.200;2024-03-06T12:46:18;99981.66;;;16.18;68.51
71149;BME280;59072;42.144;25.200;2024-03-06T12:48:44;99987.56;;;16.63;69.42
71149;BME280;59072;42.144;25.200;2024-03-06T12:51:10;99987.06;;;16.66;66.87
71149;BME280;59072;42.144;25.200;2024-03-06T12:53:35;99999.47;;;16.30;65.44
71149;BME280;59072;42.144;25.200;2024-03-06T12:56:01;99986.19;;;16.13;69.01